Sandwick, United Kingdom
Current Conditions -  °F | °C
As of 12:20 PM on Saturday 25 Oct 2014 (Local Time) from EGPB Reporting Station
Scattered Clouds Scattered Clouds  
Wind Chill: 52°   Ceiling: Unl
Heat Index: 52°   Visibility: 6mi
Dew Point: 48°   Wind: 29mph
Humidity: 88%   Direction: 200°SSW
Pressure: 29.35"   Gusts: 43mph
Location:  60°N, 1.25°W
Report Text: EGPB 251120Z 20025G37KT 9999 FEW014 SCT030 11/09 Q0994 NOSIG
Loading
Personal Weather Stations






























Interactive Weather Map
Tropical Storm Tracking
New forecast layout! Learn more

10-Day Weather Forecast

Advertisements
Track Severe Weather on mobile